createdAt,value
2023-04-19T00:00:00.844Z,3.58
2023-04-19T00:02:31.698Z,3.45
2023-04-19T00:05:02.070Z,3.50
2023-04-19T00:07:30.084Z,3.50
2023-04-19T00:09:58.312Z,3.50
2023-04-19T00:12:26.207Z,3.45
2023-04-19T00:14:54.040Z,3.70
2023-04-19T00:17:23.095Z,3.22
2023-04-19T00:19:51.228Z,4.10
2023-04-19T00:22:19.165Z,3.30
2023-04-19T00:24:46.973Z,3.50
2023-04-19T00:27:14.813Z,4.00
2023-04-19T00:29:43.150Z,4.00
2023-04-19T00:32:11.531Z,3.20
2023-04-19T00:34:39.576Z,3.40
2023-04-19T00:37:08.999Z,3.67
2023-04-19T00:39:37.506Z,3.30
2023-04-19T00:42:08.035Z,3.75
2023-04-19T00:44:35.908Z,3.78
2023-04-19T00:47:04.267Z,3.90
2023-04-19T00:49:33.377Z,3.13
2023-04-19T00:52:03.344Z,3.60
2023-04-19T00:54:31.679Z,3.97
2023-04-19T00:56:59.525Z,3.80
2023-04-19T00:59:27.208Z,3.83
2023-04-19T01:01:55.429Z,3.38
2023-04-19T01:04:38.788Z,3.65
2023-04-19T01:07:07.777Z,3.45
2023-04-19T01:09:36.679Z,4.03
2023-04-19T01:12:04.981Z,3.60
2023-04-19T01:14:32.773Z,4.15
2023-04-19T01:17:00.700Z,3.65
2023-04-19T01:19:28.723Z,3.25
2023-04-19T01:21:58.469Z,3.70
2023-04-19T01:24:26.859Z,3.00
2023-04-19T01:26:54.759Z,4.10
2023-04-19T01:29:22.528Z,3.28
2023-04-19T01:31:54.165Z,3.20
2023-04-19T01:34:23.444Z,3.15
2023-04-19T01:36:51.331Z,2.90
2023-04-19T01:39:19.586Z,3.33
2023-04-19T01:41:47.568Z,3.00
2023-04-19T01:44:15.580Z,2.90
2023-04-19T01:46:43.661Z,2.88
2023-04-19T01:49:11.637Z,3.20
2023-04-19T01:51:39.689Z,2.83
2023-04-19T01:54:10.356Z,2.72
2023-04-19T01:56:38.211Z,2.83
2023-04-19T01:59:06.254Z,3.10
2023-04-19T02:01:34.000Z,2.45
2023-04-19T02:04:03.898Z,2.70
2023-04-19T02:06:32.720Z,3.03
2023-04-19T02:09:01.778Z,2.35
2023-04-19T02:11:29.698Z,2.58
2023-04-19T02:13:57.625Z,2.40
2023-04-19T02:16:25.613Z,2.75
2023-04-19T02:18:53.650Z,2.25
2023-04-19T02:21:21.776Z,2.33
2023-04-19T02:23:49.782Z,2.75
2023-04-19T02:26:17.625Z,2.40
2023-04-19T02:28:45.417Z,2.40
2023-04-19T02:31:14.107Z,1.98
2023-04-19T02:33:41.905Z,2.10
2023-04-19T02:36:11.041Z,2.15
2023-04-19T02:38:39.888Z,2.47
2023-04-19T02:41:07.818Z,2.90
2023-04-19T02:43:39.516Z,2.25
2023-04-19T02:46:07.735Z,2.78
2023-04-19T02:48:35.958Z,2.10
2023-04-19T02:51:03.817Z,2.30
2023-04-19T02:53:32.569Z,2.83
2023-04-19T02:56:01.668Z,2.65
2023-04-19T02:58:29.695Z,2.70
2023-04-19T03:01:04.876Z,2.58
2023-04-19T03:03:32.726Z,2.80
2023-04-19T03:06:00.728Z,2.97
2023-04-19T03:08:29.660Z,2.75
2023-04-19T03:10:57.672Z,2.50
2023-04-19T03:13:25.742Z,3.00
2023-04-19T03:15:53.555Z,2.58
2023-04-19T03:18:25.197Z,2.20
2023-04-19T03:20:55.954Z,2.42
2023-04-19T03:23:23.768Z,2.00
2023-04-19T03:25:51.863Z,2.75
2023-04-19T03:28:35.211Z,2.13
2023-04-19T03:31:21.295Z,2.77
2023-04-19T03:33:51.515Z,2.97
2023-04-19T03:36:23.352Z,2.47
2023-04-19T03:38:51.326Z,2.50
2023-04-19T03:41:21.057Z,2.17
2023-04-19T03:43:52.347Z,2.40
2023-04-19T03:46:20.649Z,2.00
2023-04-19T03:48:48.573Z,2.47
2023-04-19T03:51:16.747Z,2.35
2023-04-19T03:53:45.377Z,2.05
2023-04-19T03:56:13.246Z,1.75
2023-04-19T03:58:42.704Z,2.10
2023-04-19T04:01:22.210Z,2.00
2023-04-19T04:03:52.031Z,2.03
2023-04-19T04:06:20.320Z,2.10
2023-04-19T04:08:48.720Z,1.92
2023-04-19T04:11:16.862Z,1.70
2023-04-19T04:13:47.527Z,1.88
2023-04-19T04:16:19.679Z,1.98
2023-04-19T04:18:48.533Z,1.63
2023-04-19T04:21:17.000Z,1.45
2023-04-19T04:23:50.085Z,1.63
2023-04-19T04:26:41.507Z,1.90
2023-04-19T04:29:39.466Z,1.95
2023-04-19T04:32:10.689Z,1.75
2023-04-19T04:34:43.090Z,2.10
2023-04-19T04:37:16.536Z,1.85
2023-04-19T04:39:44.542Z,1.90
2023-04-19T04:42:13.807Z,1.60
2023-04-19T04:44:42.337Z,1.88
2023-04-19T04:47:13.780Z,1.80
2023-04-19T04:49:48.318Z,2.20
2023-04-19T04:52:17.500Z,2.00
2023-04-19T04:54:58.242Z,1.75
2023-04-19T04:57:32.171Z,1.73
2023-04-19T05:00:01.640Z,2.03
2023-04-19T05:02:36.526Z,1.77
2023-04-19T05:05:04.825Z,1.70
2023-04-19T05:07:33.773Z,2.17
2023-04-19T05:10:04.605Z,2.08
2023-04-19T05:12:42.239Z,2.67
2023-04-19T05:15:12.188Z,2.60
2023-04-19T05:17:44.681Z,2.92
2023-04-19T05:20:14.233Z,3.53
2023-04-19T05:22:43.438Z,5.72
2023-04-19T05:25:12.844Z,5.50
2023-04-19T05:27:41.152Z,6.03
2023-04-19T05:30:10.214Z,4.60
2023-04-19T05:32:42.402Z,3.58
2023-04-19T05:35:12.363Z,4.00
2023-04-19T05:37:44.468Z,4.22
2023-04-19T05:40:14.199Z,4.65
2023-04-19T05:42:42.950Z,7.05
2023-04-19T05:45:15.077Z,6.65
2023-04-19T05:47:45.706Z,7.50
2023-04-19T05:50:37.205Z,5.68
2023-04-19T05:53:28.076Z,4.78
2023-04-19T05:55:58.333Z,4.63
2023-04-19T05:58:27.384Z,4.13
2023-04-19T06:00:55.793Z,3.55
2023-04-19T06:03:27.747Z,3.13
2023-04-19T06:06:01.256Z,3.03
2023-04-19T06:08:29.258Z,3.20
2023-04-19T06:11:02.109Z,3.25
2023-04-19T06:13:33.743Z,3.30
2023-04-19T06:16:01.824Z,3.50
2023-04-19T06:18:30.825Z,3.85
2023-04-19T06:20:58.576Z,3.63
2023-04-19T06:23:27.171Z,3.60
2023-04-19T06:25:55.156Z,3.53
2023-04-19T06:28:23.052Z,3.90
2023-04-19T06:30:50.834Z,4.07
2023-04-19T06:33:18.802Z,3.90
2023-04-19T06:35:46.561Z,4.05
2023-04-19T06:38:14.200Z,3.65
2023-04-19T06:40:42.161Z,3.75
2023-04-19T06:43:10.225Z,4.10
2023-04-19T06:45:39.313Z,3.50
2023-04-19T06:48:07.066Z,3.35
2023-04-19T06:50:35.126Z,3.85
2023-04-19T06:53:04.724Z,3.13
2023-04-19T06:55:32.802Z,3.67
2023-04-19T06:58:04.267Z,4.13
2023-04-19T07:00:32.301Z,3.70
2023-04-19T07:03:00.929Z,4.25
2023-04-19T07:05:30.054Z,4.18
2023-04-19T07:07:59.504Z,4.05
2023-04-19T07:10:27.336Z,4.53
2023-04-19T07:12:56.006Z,5.32
2023-04-19T07:15:23.894Z,4.90
2023-04-19T07:17:53.709Z,6.00
2023-04-19T07:20:21.915Z,8.30
2023-04-19T07:22:49.609Z,9.27
2023-04-19T07:25:17.654Z,8.07
2023-04-19T07:27:45.719Z,6.40
2023-04-19T07:30:13.585Z,5.90
2023-04-19T07:32:42.119Z,6.30
2023-04-19T07:35:12.536Z,6.70
2023-04-19T07:37:40.642Z,5.88
2023-04-19T07:40:09.413Z,5.35
2023-04-19T07:42:42.197Z,5.53
2023-04-19T07:45:10.642Z,6.28
2023-04-19T07:47:38.473Z,7.40
2023-04-19T07:50:07.816Z,5.95
2023-04-19T07:52:35.542Z,6.20
2023-04-19T07:55:03.736Z,7.18
2023-04-19T07:57:31.979Z,6.22
2023-04-19T07:59:59.793Z,7.30
2023-04-19T08:02:28.585Z,6.07
2023-04-19T08:04:58.098Z,6.85
2023-04-19T08:07:28.786Z,6.55
2023-04-19T08:09:58.537Z,6.20
2023-04-19T08:12:35.085Z,6.20
2023-04-19T08:15:29.603Z,6.15
2023-04-19T08:17:57.281Z,6.22
2023-04-19T08:20:25.492Z,7.28
2023-04-19T08:22:55.124Z,6.38
2023-04-19T08:25:27.003Z,7.10
2023-04-19T08:27:55.584Z,6.93
2023-04-19T08:30:24.103Z,6.40
2023-04-19T08:32:52.731Z,7.07
2023-04-19T08:35:22.400Z,7.18
2023-04-19T08:37:50.581Z,5.70
2023-04-19T08:40:18.548Z,5.53
2023-04-19T08:42:46.486Z,5.93
2023-04-19T08:45:29.378Z,5.65
2023-04-19T08:48:01.740Z,5.00
2023-04-19T08:50:35.922Z,4.97
2023-04-19T08:55:58.474Z,4.22
2023-04-19T08:58:50.362Z,3.65
2023-04-19T09:04:04.986Z,3.10
2023-04-19T09:06:39.267Z,2.78
2023-04-19T09:11:50.512Z,2.30
2023-04-19T09:14:21.307Z,2.50
2023-04-19T09:16:49.690Z,2.58
2023-04-19T09:19:24.237Z,3.35
2023-04-19T09:21:55.103Z,3.47
2023-04-19T09:27:17.125Z,3.53
2023-04-19T09:29:56.892Z,3.15
2023-04-19T09:32:25.424Z,2.90
2023-04-19T09:34:59.166Z,2.90
2023-04-19T09:39:58.384Z,2.55
2023-04-19T09:43:05.410Z,2.67
2023-04-19T09:45:44.402Z,3.13
2023-04-19T09:48:13.605Z,2.70
2023-04-19T09:51:07.303Z,3.25
2023-04-19T09:53:41.846Z,2.80
2023-04-19T09:56:13.106Z,2.90
2023-04-19T09:58:49.960Z,2.80
2023-04-19T10:01:22.482Z,2.40
2023-04-19T10:03:52.119Z,2.22
2023-04-19T10:08:55.202Z,2.00
2023-04-19T10:11:23.800Z,1.70
2023-04-19T10:13:57.593Z,2.42
2023-04-19T10:16:26.612Z,2.30
2023-04-19T10:18:57.513Z,2.15
2023-04-19T10:21:28.074Z,1.60
2023-04-19T10:23:57.603Z,1.58
2023-04-19T10:26:25.898Z,2.05
2023-04-19T10:28:59.950Z,3.10
2023-04-19T10:31:30.588Z,4.15
2023-04-19T10:33:59.167Z,3.38
2023-04-19T10:36:28.166Z,3.25
2023-04-19T10:38:57.052Z,3.28
2023-04-19T10:41:44.992Z,7.90
2023-04-19T10:44:12.754Z,11.07
2023-04-19T10:46:41.056Z,11.48
2023-04-19T10:49:10.314Z,8.13
2023-04-19T10:51:39.738Z,6.20
2023-04-19T10:54:28.767Z,5.03
2023-04-19T10:57:05.842Z,3.17
2023-04-19T10:59:37.244Z,2.83
2023-04-19T11:02:33.506Z,2.40
2023-04-19T11:05:02.792Z,2.17
2023-04-19T11:07:37.316Z,1.70
2023-04-19T11:10:05.562Z,1.35
2023-04-19T11:12:34.250Z,1.52
2023-04-19T11:15:03.006Z,2.05
2023-04-19T11:17:32.866Z,2.00
2023-04-19T11:20:10.329Z,1.30
2023-04-19T11:22:40.684Z,1.77
2023-04-19T11:25:12.950Z,1.90
2023-04-19T11:27:44.867Z,1.92
2023-04-19T11:30:14.104Z,2.00
2023-04-19T11:33:03.674Z,1.90
2023-04-19T11:35:31.765Z,1.70
2023-04-19T11:38:00.132Z,2.08
2023-04-19T11:40:27.967Z,3.05
2023-04-19T11:43:00.809Z,3.05
2023-04-19T11:45:35.384Z,3.25
2023-04-19T11:48:06.250Z,3.03
2023-04-19T11:50:42.251Z,3.25
2023-04-19T11:53:32.484Z,3.28
2023-04-19T11:56:07.917Z,3.17
2023-04-19T11:58:51.607Z,3.30
2023-04-19T12:01:21.546Z,3.10
2023-04-19T12:03:51.272Z,3.20
2023-04-19T12:06:39.684Z,2.33
2023-04-19T12:09:11.473Z,3.00
2023-04-19T12:11:50.402Z,2.33
2023-04-19T12:14:23.290Z,2.67
2023-04-19T12:17:12.130Z,2.72
2023-04-19T12:19:46.351Z,3.05
2023-04-19T12:22:16.344Z,2.63
2023-04-19T12:24:44.184Z,2.65
2023-04-19T12:27:13.256Z,2.10
2023-04-19T12:29:41.170Z,3.97
2023-04-19T12:32:11.069Z,6.13
2023-04-19T12:34:39.012Z,5.43
2023-04-19T12:37:07.095Z,5.10
2023-04-19T12:39:35.009Z,4.22
2023-04-19T12:42:03.059Z,3.67
2023-04-19T12:44:30.927Z,4.18
2023-04-19T12:46:58.890Z,4.03
2023-04-19T12:49:26.996Z,4.30
2023-04-19T12:51:57.250Z,6.47
2023-04-19T12:54:25.538Z,6.40
2023-04-19T12:56:54.346Z,5.60
2023-04-19T12:59:22.474Z,4.20
2023-04-19T13:01:51.421Z,3.00
2023-04-19T13:04:19.600Z,6.28
2023-04-19T13:06:50.672Z,5.30
2023-04-19T13:09:18.551Z,3.85
2023-04-19T13:11:46.353Z,2.90
2023-04-19T13:14:14.395Z,3.13
2023-04-19T13:16:42.795Z,3.00
2023-04-19T13:19:11.248Z,2.80
2023-04-19T13:21:40.176Z,3.10
2023-04-19T13:24:08.782Z,3.00
2023-04-19T13:26:37.525Z,2.60
2023-04-19T13:29:05.558Z,4.10
2023-04-19T13:31:35.051Z,6.07
2023-04-19T13:34:03.081Z,4.60
2023-04-19T13:36:31.541Z,4.13
2023-04-19T13:39:00.272Z,4.18
2023-04-19T13:41:28.512Z,5.53
2023-04-19T13:43:56.402Z,4.40
2023-04-19T13:46:24.430Z,4.45
2023-04-19T13:48:55.476Z,4.85
2023-04-19T13:51:23.230Z,4.05
2023-04-19T13:53:51.381Z,2.80
2023-04-19T13:56:19.287Z,2.70
2023-04-19T13:58:47.146Z,2.10
2023-04-19T14:01:15.996Z,2.08
2023-04-19T14:03:44.055Z,2.13
2023-04-19T14:06:12.069Z,1.60
2023-04-19T14:08:39.820Z,1.77
2023-04-19T14:11:07.505Z,1.67
2023-04-19T14:13:35.366Z,2.03
2023-04-19T14:16:04.422Z,1.60
2023-04-19T14:18:32.956Z,1.85
2023-04-19T14:21:01.770Z,1.40
2023-04-19T14:23:31.037Z,1.52
2023-04-19T14:25:59.030Z,1.50
2023-04-19T14:28:27.104Z,1.30
2023-04-19T14:30:55.794Z,1.58
2023-04-19T14:33:23.621Z,1.35
2023-04-19T14:35:51.700Z,1.70
2023-04-19T14:38:19.669Z,1.48
2023-04-19T14:40:47.572Z,1.65
2023-04-19T14:43:19.161Z,1.65
2023-04-19T14:45:49.871Z,1.38
2023-04-19T14:48:21.416Z,1.33
2023-04-19T14:50:50.270Z,1.30
2023-04-19T14:53:18.303Z,1.40
2023-04-19T14:55:45.977Z,1.20
2023-04-19T14:58:13.789Z,1.45
2023-04-19T15:00:43.275Z,1.30
2023-04-19T15:03:11.173Z,1.52
2023-04-19T15:05:41.103Z,1.40
2023-04-19T15:08:17.374Z,1.42
2023-04-19T15:10:56.083Z,1.20
2023-04-19T15:13:23.975Z,1.50
2023-04-19T15:15:51.806Z,1.27
2023-04-19T15:18:20.973Z,1.20
2023-04-19T15:20:48.789Z,1.05
2023-04-19T15:23:16.916Z,1.45
2023-04-19T15:25:44.903Z,1.38
2023-04-19T15:28:12.652Z,1.60
2023-04-19T15:30:40.913Z,1.33
2023-04-19T15:33:09.221Z,1.65
2023-04-19T15:35:37.103Z,2.00
2023-04-19T15:38:05.025Z,1.35
2023-04-19T15:40:32.788Z,1.38
2023-04-19T15:43:01.232Z,1.15
2023-04-19T15:45:29.384Z,1.30
2023-04-19T15:47:57.433Z,1.40
2023-04-19T15:50:28.891Z,1.10
2023-04-19T15:53:08.135Z,1.55
2023-04-19T15:55:56.691Z,1.70
2023-04-19T15:58:30.965Z,1.35
2023-04-19T16:00:58.868Z,1.40
2023-04-19T16:03:28.506Z,1.20
2023-04-19T16:05:56.477Z,1.33
2023-04-19T16:08:24.743Z,1.30
2023-04-19T16:10:55.583Z,1.40
2023-04-19T16:13:23.498Z,1.30
2023-04-19T16:15:51.386Z,1.35
2023-04-19T16:18:21.292Z,1.33
2023-04-19T16:20:49.162Z,1.40
2023-04-19T16:23:48.366Z,1.48
2023-04-19T16:26:14.076Z,1.70
2023-04-19T16:28:50.345Z,2.05
2023-04-19T16:31:19.462Z,2.10
2023-04-19T16:33:48.171Z,1.90
2023-04-19T16:36:16.421Z,2.20
2023-04-19T16:38:44.603Z,1.90
2023-04-19T16:41:12.491Z,2.22
2023-04-19T16:43:56.183Z,1.88
2023-04-19T16:46:34.036Z,1.70
2023-04-19T16:49:02.428Z,1.83
2023-04-19T16:51:31.009Z,1.92
2023-04-19T16:54:00.723Z,1.60
2023-04-19T16:56:28.865Z,1.60
2023-04-19T16:58:56.808Z,1.80
2023-04-19T17:01:25.004Z,1.90
2023-04-19T17:03:53.315Z,1.85
2023-04-19T17:06:21.477Z,1.70
2023-04-19T17:08:50.238Z,2.10
2023-04-19T17:11:18.834Z,2.45
2023-04-19T17:13:47.945Z,2.33
2023-04-19T17:16:18.858Z,2.55
2023-04-19T17:18:46.715Z,2.83
2023-04-19T17:21:16.333Z,3.30
2023-04-19T17:23:45.849Z,3.55
2023-04-19T17:26:16.165Z,3.80
2023-04-19T17:28:44.247Z,3.10
2023-04-19T17:31:12.386Z,3.20
2023-04-19T17:33:40.689Z,3.42
2023-04-19T17:36:09.776Z,2.92
2023-04-19T17:38:37.688Z,2.78
2023-04-19T17:41:08.684Z,2.53
2023-04-19T17:43:36.456Z,2.88
2023-04-19T17:46:04.409Z,2.92
2023-04-19T17:48:32.725Z,3.60
2023-04-19T17:51:01.256Z,4.40
2023-04-19T17:53:30.843Z,5.50
2023-04-19T17:55:59.228Z,5.00
2023-04-19T17:58:27.159Z,6.30
2023-04-19T18:00:55.155Z,8.45
2023-04-19T18:03:23.153Z,9.13
2023-04-19T18:05:54.473Z,9.13
2023-04-19T18:08:22.441Z,7.40
2023-04-19T18:10:51.107Z,6.50
2023-04-19T18:13:19.118Z,5.00
2023-04-19T18:15:47.072Z,5.00
2023-04-19T18:18:14.882Z,5.70
2023-04-19T18:20:47.426Z,5.90
2023-04-19T18:23:15.835Z,5.50
2023-04-19T18:25:43.551Z,6.05
2023-04-19T18:28:11.891Z,6.45
2023-04-19T18:30:42.325Z,5.55
2023-04-19T18:33:10.115Z,5.00
2023-04-19T18:35:38.141Z,5.28
2023-04-19T18:38:07.067Z,5.85
2023-04-19T18:40:34.854Z,6.10
2023-04-19T18:43:05.121Z,5.85
2023-04-19T18:45:33.291Z,6.80
2023-04-19T18:48:01.458Z,9.30
2023-04-19T18:50:32.828Z,11.00
2023-04-19T18:53:00.560Z,8.23
2023-04-19T18:55:29.621Z,10.90
2023-04-19T18:57:57.510Z,8.85
2023-04-19T19:00:27.163Z,6.93
2023-04-19T19:02:55.446Z,5.40
2023-04-19T19:05:23.446Z,5.28
2023-04-19T19:07:51.539Z,5.20
2023-04-19T19:10:22.597Z,5.45
2023-04-19T19:12:54.862Z,5.72
2023-04-19T19:15:22.650Z,7.53
2023-04-19T19:17:54.321Z,8.57
2023-04-19T19:20:24.524Z,7.97
2023-04-19T19:22:55.006Z,7.00
2023-04-19T19:25:23.092Z,6.88
2023-04-19T19:30:27.829Z,6.38
2023-04-19T19:32:56.353Z,5.18
2023-04-19T19:35:27.116Z,5.95
2023-04-19T19:38:03.863Z,6.45
2023-04-19T19:40:32.837Z,5.00
2023-04-19T19:43:03.629Z,5.40
2023-04-19T19:45:31.700Z,4.90
2023-04-19T19:48:00.142Z,5.00
2023-04-19T19:53:02.120Z,4.72
2023-04-19T19:55:31.306Z,5.43
2023-04-19T20:03:02.459Z,6.30
2023-04-19T20:05:31.049Z,5.43
2023-04-19T20:08:13.438Z,4.93
2023-04-19T20:10:43.199Z,4.60
2023-04-19T20:13:13.173Z,4.00
2023-04-19T20:15:43.458Z,6.20
2023-04-19T20:18:13.335Z,5.95
2023-04-19T20:20:41.208Z,13.57
2023-04-19T20:23:09.681Z,10.98
2023-04-19T20:25:39.003Z,7.35
2023-04-19T20:28:07.282Z,6.82
2023-04-19T20:30:37.198Z,6.30
2023-04-19T20:33:06.550Z,6.07
2023-04-19T20:35:37.651Z,4.70
2023-04-19T20:38:08.016Z,4.40
2023-04-19T20:40:37.524Z,4.05
2023-04-19T20:43:06.562Z,4.68
2023-04-19T20:48:18.800Z,7.05
2023-04-19T20:50:46.820Z,7.55
2023-04-19T20:53:14.739Z,44.78
2023-04-19T20:55:46.375Z,39.00
2023-04-19T20:58:14.126Z,23.98
2023-04-19T21:00:42.026Z,16.80
2023-04-19T21:03:12.963Z,12.13
2023-04-19T21:05:41.117Z,10.85
2023-04-19T21:08:08.774Z,8.07
2023-04-19T21:10:36.677Z,6.03
2023-04-19T21:13:04.733Z,5.53
2023-04-19T21:15:32.629Z,4.55
2023-04-19T21:18:00.456Z,4.32
2023-04-19T21:20:28.403Z,4.60
2023-04-19T21:22:56.180Z,4.35
2023-04-19T21:25:24.002Z,4.72
2023-04-19T21:27:53.245Z,6.30
2023-04-19T21:30:23.275Z,6.88
2023-04-19T21:32:51.606Z,6.82
2023-04-19T21:35:20.919Z,6.63
2023-04-19T21:37:48.744Z,5.80
2023-04-19T21:40:16.629Z,5.38
2023-04-19T21:42:44.344Z,4.93
2023-04-19T21:45:12.208Z,4.28
2023-04-19T21:47:40.277Z,3.90
2023-04-19T21:50:08.886Z,4.30
2023-04-19T21:52:36.698Z,3.60
2023-04-19T21:55:05.227Z,3.47
2023-04-19T21:57:34.152Z,3.70
2023-04-19T22:00:01.928Z,3.65
2023-04-19T22:02:31.450Z,3.38
2023-04-19T22:05:00.641Z,3.38
2023-04-19T22:07:31.335Z,3.50
2023-04-19T22:10:01.497Z,3.00
2023-04-19T22:12:31.234Z,2.72
2023-04-19T22:14:59.178Z,2.97
2023-04-19T22:17:28.693Z,3.10
2023-04-19T22:19:57.397Z,2.95
2023-04-19T22:22:26.810Z,2.80
2023-04-19T22:24:57.969Z,3.15
2023-04-19T22:27:29.446Z,2.53
2023-04-19T22:30:01.502Z,2.97
2023-04-19T22:32:30.116Z,2.60
2023-04-19T22:34:58.416Z,3.00
2023-04-19T22:37:26.413Z,2.85
2023-04-19T22:39:54.229Z,2.80
2023-04-19T22:42:24.255Z,2.90
2023-04-19T22:44:52.080Z,2.80
2023-04-19T22:47:20.037Z,3.13
2023-04-19T22:49:48.511Z,2.72
2023-04-19T22:52:16.310Z,3.13
2023-04-19T22:54:44.176Z,2.72
2023-04-19T22:57:12.158Z,2.85
2023-04-19T22:59:40.091Z,2.50
2023-04-19T23:02:09.520Z,2.55
2023-04-19T23:04:38.365Z,3.00
2023-04-19T23:07:06.880Z,2.08
2023-04-19T23:09:34.778Z,2.80
2023-04-19T23:12:02.569Z,2.60
2023-04-19T23:14:30.397Z,2.40
2023-04-19T23:16:58.212Z,2.50
2023-04-19T23:19:26.508Z,2.60
2023-04-19T23:21:54.256Z,2.40
2023-04-19T23:24:22.318Z,2.58
2023-04-19T23:26:50.322Z,2.78
2023-04-19T23:29:18.468Z,2.50
2023-04-19T23:31:46.576Z,2.20
2023-04-19T23:34:14.563Z,2.30
2023-04-19T23:36:42.359Z,2.45
2023-04-19T23:39:10.031Z,2.88
2023-04-19T23:41:37.893Z,2.67
2023-04-19T23:44:06.242Z,2.10
2023-04-19T23:46:34.163Z,2.20
2023-04-19T23:49:02.093Z,2.20
2023-04-19T23:51:29.806Z,2.15
2023-04-19T23:53:57.784Z,2.45
2023-04-19T23:56:25.923Z,2.22
2023-04-19T23:58:53.642Z,2.70
